createdAt,value
2019-01-18T00:00:33.220Z,4.13
2019-01-18T00:02:59.286Z,5.17
2019-01-18T00:05:25.310Z,9.00
2019-01-18T00:07:51.411Z,6.07
2019-01-18T00:10:17.530Z,4.90
2019-01-18T00:12:43.545Z,4.70
2019-01-18T00:15:10.001Z,6.43
2019-01-18T00:17:38.014Z,7.53
2019-01-18T00:20:08.038Z,6.40
2019-01-18T00:22:44.444Z,5.80
2019-01-18T00:25:12.084Z,4.20
2019-01-18T00:27:38.132Z,5.80
2019-01-18T00:30:20.601Z,3.40
2019-01-18T00:32:46.677Z,1.93
2019-01-18T00:35:12.679Z,2.60
2019-01-18T00:37:38.770Z,4.30
2019-01-18T00:40:08.602Z,2.30
2019-01-18T00:42:34.751Z,2.37
2019-01-18T00:45:00.782Z,4.07
2019-01-18T00:47:26.834Z,1.60
2019-01-18T00:50:03.655Z,2.60
2019-01-18T00:52:29.897Z,1.27
2019-01-18T00:54:55.910Z,4.03
2019-01-18T00:57:22.051Z,3.60
2019-01-18T00:59:48.216Z,4.20
2019-01-18T01:02:14.517Z,4.17
2019-01-18T01:04:40.872Z,2.30
2019-01-18T01:07:06.859Z,1.90
2019-01-18T01:09:32.874Z,3.00
2019-01-18T01:11:58.922Z,2.93
2019-01-18T01:14:24.958Z,2.53
2019-01-18T01:16:50.973Z,4.90
2019-01-18T01:19:16.980Z,2.20
2019-01-18T01:21:43.006Z,2.57
2019-01-18T01:24:09.027Z,2.07
2019-01-18T01:26:35.085Z,1.30
2019-01-18T01:29:01.398Z,1.30
2019-01-18T01:31:27.526Z,1.50
2019-01-18T01:33:53.540Z,1.90
2019-01-18T01:36:19.875Z,2.07
2019-01-18T01:38:45.875Z,1.97
2019-01-18T01:41:11.924Z,1.57
2019-01-18T01:43:37.946Z,1.33
2019-01-18T01:46:04.090Z,3.63
2019-01-18T01:48:30.112Z,1.40
2019-01-18T01:50:56.293Z,1.20
2019-01-18T01:53:22.404Z,1.47
2019-01-18T01:55:48.438Z,4.13
2019-01-18T01:58:14.476Z,2.90
2019-01-18T02:00:40.490Z,4.17
2019-01-18T02:03:06.516Z,1.40
2019-01-18T02:05:32.538Z,1.30
2019-01-18T02:07:58.618Z,1.20
2019-01-18T02:10:24.647Z,1.57
2019-01-18T02:12:50.677Z,2.50
2019-01-18T02:15:21.646Z,2.23
2019-01-18T02:17:47.706Z,1.70
2019-01-18T02:20:15.942Z,2.90
2019-01-18T02:22:42.142Z,1.40
2019-01-18T02:25:08.624Z,2.57
2019-01-18T02:27:34.739Z,2.50
2019-01-18T02:30:00.886Z,1.40
2019-01-18T02:32:26.983Z,3.13
2019-01-18T02:34:53.081Z,1.80
2019-01-18T02:37:19.090Z,2.17
2019-01-18T02:39:45.155Z,2.43
2019-01-18T02:42:11.290Z,2.07
2019-01-18T02:44:37.560Z,1.70
2019-01-18T02:47:03.570Z,1.73
2019-01-18T02:49:29.685Z,3.57
2019-01-18T02:51:56.006Z,3.03
2019-01-18T02:54:22.083Z,1.50
2019-01-18T02:56:48.141Z,3.10
2019-01-18T02:59:14.142Z,1.30
2019-01-18T03:01:40.226Z,5.40
2019-01-18T03:04:06.229Z,4.30
2019-01-18T03:06:32.287Z,2.00
2019-01-18T03:08:58.441Z,2.90
2019-01-18T03:11:24.494Z,2.27
2019-01-18T03:13:50.622Z,2.90
2019-01-18T03:16:16.650Z,1.43
2019-01-18T03:18:42.666Z,1.57
2019-01-18T03:21:08.798Z,2.33
2019-01-18T03:23:34.844Z,2.23
2019-01-18T03:26:00.861Z,3.80
2019-01-18T03:28:26.902Z,1.80
2019-01-18T03:30:53.171Z,1.97
2019-01-18T03:33:19.336Z,2.63
2019-01-18T03:35:45.456Z,2.60
2019-01-18T03:38:11.787Z,4.30
2019-01-18T03:40:37.902Z,3.37
2019-01-18T03:43:04.135Z,4.53
2019-01-18T03:45:30.256Z,1.80
2019-01-18T03:47:56.651Z,2.33
2019-01-18T03:50:24.336Z,3.80
2019-01-18T03:52:50.332Z,3.67
2019-01-18T03:55:16.631Z,5.30
2019-01-18T03:57:42.883Z,1.50
2019-01-18T04:00:25.696Z,2.30
2019-01-18T04:02:46.602Z,4.30
2019-01-18T04:05:13.325Z,3.57
2019-01-18T04:07:39.565Z,2.03
2019-01-18T04:10:08.872Z,3.23
2019-01-18T04:12:35.006Z,2.60
2019-01-18T04:15:01.019Z,4.70
2019-01-18T04:17:27.066Z,1.57
2019-01-18T04:19:53.089Z,6.60
2019-01-18T04:22:19.126Z,3.70
2019-01-18T04:24:45.139Z,3.70
2019-01-18T04:27:11.180Z,3.60
2019-01-18T04:29:37.196Z,4.50
2019-01-18T04:32:03.326Z,3.40
2019-01-18T04:34:29.484Z,2.00
2019-01-18T04:36:55.539Z,2.40
2019-01-18T04:39:21.767Z,3.57
2019-01-18T04:41:47.878Z,3.90
2019-01-18T04:44:14.019Z,4.33
2019-01-18T04:46:40.013Z,2.63
2019-01-18T04:49:06.046Z,2.23
2019-01-18T04:51:32.156Z,4.30
2019-01-18T04:53:58.525Z,1.97
2019-01-18T04:56:24.668Z,3.00
2019-01-18T04:58:50.680Z,4.40
2019-01-18T05:01:16.803Z,6.37
2019-01-18T05:03:42.931Z,4.63
2019-01-18T05:06:09.209Z,2.67
2019-01-18T05:08:35.349Z,5.70
2019-01-18T05:11:01.475Z,2.53
2019-01-18T05:13:27.654Z,4.13
2019-01-18T05:15:53.703Z,3.27
2019-01-18T05:18:19.693Z,3.50
2019-01-18T05:20:45.725Z,5.43
2019-01-18T05:23:11.770Z,4.93
2019-01-18T05:25:37.794Z,3.70
2019-01-18T05:28:03.922Z,2.00
2019-01-18T05:30:29.946Z,3.57
2019-01-18T05:32:56.283Z,1.77
2019-01-18T05:35:22.338Z,3.50
2019-01-18T05:37:48.638Z,4.20
2019-01-18T05:40:17.842Z,4.27
2019-01-18T05:42:44.263Z,5.67
2019-01-18T05:45:12.941Z,3.20
2019-01-18T05:47:38.970Z,4.47
2019-01-18T05:50:08.815Z,3.93
2019-01-18T05:52:34.899Z,4.07
2019-01-18T05:55:00.940Z,11.37
2019-01-18T05:57:28.154Z,3.93
2019-01-18T05:59:54.975Z,2.07
2019-01-18T06:02:21.021Z,9.60
2019-01-18T06:04:48.185Z,4.20
2019-01-18T06:07:14.227Z,4.80
2019-01-18T06:09:40.210Z,3.67
2019-01-18T06:12:06.286Z,8.40
2019-01-18T06:14:32.371Z,3.73
2019-01-18T06:16:58.499Z,4.40
2019-01-18T06:19:24.666Z,3.33
2019-01-18T06:21:50.795Z,5.07
2019-01-18T06:24:16.867Z,2.10
2019-01-18T06:26:42.931Z,6.70
2019-01-18T06:29:08.939Z,3.53
2019-01-18T06:31:35.039Z,5.10
2019-01-18T06:34:01.118Z,4.40
2019-01-18T06:36:27.226Z,3.40
2019-01-18T06:38:53.328Z,9.10
2019-01-18T06:41:21.589Z,3.53
2019-01-18T06:43:47.629Z,5.47
2019-01-18T06:46:13.770Z,4.77
2019-01-18T06:48:40.723Z,6.53
2019-01-18T06:51:06.808Z,4.90
2019-01-18T06:53:32.825Z,5.40
2019-01-18T06:55:58.831Z,3.80
2019-01-18T06:58:24.947Z,5.70
2019-01-18T07:00:51.053Z,5.10
2019-01-18T07:03:17.180Z,4.37
2019-01-18T07:05:43.202Z,4.60
2019-01-18T07:08:09.211Z,3.10
2019-01-18T07:10:35.225Z,5.93
2019-01-18T07:13:01.291Z,3.93
2019-01-18T07:15:27.415Z,6.40
2019-01-18T07:17:53.471Z,6.90
2019-01-18T07:20:19.798Z,4.60
2019-01-18T07:22:45.906Z,4.83
2019-01-18T07:25:20.949Z,3.80
2019-01-18T07:27:47.028Z,5.57
2019-01-18T07:30:16.267Z,4.73
2019-01-18T07:32:42.312Z,3.87
2019-01-18T07:35:08.525Z,4.57
2019-01-18T07:37:34.670Z,4.80
2019-01-18T07:40:00.800Z,5.20
2019-01-18T07:42:26.858Z,3.70
2019-01-18T07:44:52.874Z,6.73
2019-01-18T07:47:18.999Z,5.57
2019-01-18T07:49:45.142Z,8.70
2019-01-18T07:52:11.380Z,7.53
2019-01-18T07:54:37.383Z,3.67
2019-01-18T07:57:03.443Z,3.63
2019-01-18T07:59:29.602Z,6.53
2019-01-18T08:01:55.689Z,4.17
2019-01-18T08:04:21.702Z,7.07
2019-01-18T08:06:47.727Z,3.67
2019-01-18T08:09:13.754Z,4.83
2019-01-18T08:11:39.771Z,12.10
2019-01-18T08:14:05.842Z,11.40
2019-01-18T08:16:31.872Z,8.40
2019-01-18T08:18:58.010Z,7.60
2019-01-18T08:21:24.080Z,7.10
2019-01-18T08:23:50.227Z,3.33
2019-01-18T08:26:16.263Z,6.00
2019-01-18T08:28:42.262Z,3.13
2019-01-18T08:31:08.288Z,6.57
2019-01-18T08:33:34.319Z,4.60
2019-01-18T08:36:00.319Z,3.60
2019-01-18T08:38:26.402Z,4.53
2019-01-18T08:40:52.455Z,3.40
2019-01-18T08:43:18.492Z,4.13
2019-01-18T08:45:46.954Z,3.87
2019-01-18T08:48:13.203Z,7.00
2019-01-18T08:50:40.242Z,7.20
2019-01-18T08:53:06.257Z,4.40
2019-01-18T08:55:32.291Z,6.80
2019-01-18T08:57:58.330Z,6.23
2019-01-18T09:00:26.376Z,4.10
2019-01-18T09:02:52.421Z,6.10
2019-01-18T09:05:20.754Z,8.33
2019-01-18T09:07:46.766Z,4.70
2019-01-18T09:10:15.323Z,4.10
2019-01-18T09:12:41.318Z,5.73
2019-01-18T09:15:09.477Z,4.73
2019-01-18T09:17:35.587Z,5.03
2019-01-18T09:20:02.610Z,6.50
2019-01-18T09:22:28.648Z,6.17
2019-01-18T09:24:54.728Z,7.03
2019-01-18T09:27:20.744Z,5.10
2019-01-18T09:29:46.795Z,6.63
2019-01-18T09:32:12.806Z,9.77
2019-01-18T09:34:38.830Z,6.87
2019-01-18T09:37:04.872Z,7.97
2019-01-18T09:39:31.051Z,7.67
2019-01-18T09:41:57.109Z,11.13
2019-01-18T09:44:23.111Z,8.97
2019-01-18T09:46:49.174Z,5.70
2019-01-18T09:49:15.221Z,6.27
2019-01-18T09:51:41.242Z,6.53
2019-01-18T09:54:07.361Z,4.70
2019-01-18T09:56:33.382Z,6.10
2019-01-18T09:58:59.435Z,2.90
2019-01-18T10:01:25.494Z,3.43
2019-01-18T10:03:51.528Z,7.63
2019-01-18T10:06:17.527Z,3.40
2019-01-18T10:08:43.554Z,4.57
2019-01-18T10:11:09.568Z,7.07
2019-01-18T10:13:35.740Z,5.90
2019-01-18T10:16:01.779Z,4.43
2019-01-18T10:18:27.914Z,4.70
2019-01-18T10:20:53.992Z,8.33
2019-01-18T10:23:20.157Z,6.53
2019-01-18T10:25:46.299Z,5.23
2019-01-18T10:28:12.458Z,4.03
2019-01-18T10:30:38.686Z,4.80
2019-01-18T10:33:04.769Z,5.00
2019-01-18T10:35:30.834Z,6.63
2019-01-18T10:37:57.006Z,5.83
2019-01-18T10:40:23.158Z,4.73
2019-01-18T10:42:49.730Z,3.73
2019-01-18T10:45:16.997Z,3.07
2019-01-18T10:47:43.582Z,2.37
2019-01-18T10:50:20.603Z,3.60
2019-01-18T10:52:46.967Z,6.53
2019-01-18T10:55:13.102Z,2.40
2019-01-18T10:57:39.404Z,3.63
2019-01-18T11:00:15.361Z,4.57
2019-01-18T11:02:41.393Z,6.23
2019-01-18T11:05:09.814Z,4.13
2019-01-18T11:07:35.860Z,3.53
2019-01-18T11:10:05.403Z,3.37
2019-01-18T11:12:31.504Z,4.73
2019-01-18T11:14:57.643Z,7.43
2019-01-18T11:17:23.762Z,7.10
2019-01-18T11:19:49.798Z,6.13
2019-01-18T11:22:15.877Z,9.43
2019-01-18T11:24:41.894Z,5.43
2019-01-18T11:27:07.960Z,3.43
2019-01-18T11:29:33.991Z,5.00
2019-01-18T11:32:00.032Z,5.90
2019-01-18T11:34:26.030Z,5.00
2019-01-18T11:36:56.429Z,5.60
2019-01-18T11:39:20.126Z,3.70
2019-01-18T11:41:46.454Z,5.90
2019-01-18T11:44:12.554Z,4.90
2019-01-18T11:46:38.585Z,8.03
2019-01-18T11:49:05.830Z,3.23
2019-01-18T11:51:31.954Z,4.50
2019-01-18T11:53:58.178Z,5.27
2019-01-18T11:56:24.652Z,4.47
2019-01-18T11:58:50.673Z,12.60
2019-01-18T12:01:16.694Z,8.17
2019-01-18T12:03:42.697Z,13.40
2019-01-18T12:06:08.831Z,8.50
2019-01-18T12:08:34.833Z,6.83
2019-01-18T12:11:00.897Z,24.67
2019-01-18T12:13:27.061Z,10.23
2019-01-18T12:15:53.163Z,6.80
2019-01-18T12:18:19.269Z,8.47
2019-01-18T12:20:45.309Z,13.50
2019-01-18T12:23:11.452Z,4.20
2019-01-18T12:25:37.450Z,3.83
2019-01-18T12:28:03.522Z,9.50
2019-01-18T12:30:31.324Z,7.07
2019-01-18T12:32:57.315Z,6.20
2019-01-18T12:35:23.465Z,7.07
2019-01-18T12:37:49.499Z,5.90
2019-01-18T12:40:15.638Z,7.10
2019-01-18T12:42:41.647Z,11.23
2019-01-18T12:45:13.319Z,9.70
2019-01-18T12:47:39.446Z,6.53
2019-01-18T12:50:11.978Z,3.87
2019-01-18T12:52:38.046Z,9.37
2019-01-18T12:55:06.100Z,7.63
2019-01-18T12:57:32.230Z,3.80
2019-01-18T12:59:58.240Z,6.00
2019-01-18T13:02:24.483Z,8.23
2019-01-18T13:04:50.626Z,8.40
2019-01-18T13:07:16.643Z,5.20
2019-01-18T13:09:42.679Z,10.43
2019-01-18T13:12:08.711Z,5.30
2019-01-18T13:14:34.956Z,6.33
2019-01-18T13:17:01.131Z,7.50
2019-01-18T13:19:27.381Z,7.47
2019-01-18T13:21:53.430Z,9.20
2019-01-18T13:27:02.315Z,7.10
2019-01-18T13:29:29.247Z,14.30
2019-01-18T13:31:55.687Z,6.33
2019-01-18T13:34:21.992Z,10.93
2019-01-18T13:36:48.212Z,9.90
2019-01-18T13:39:14.505Z,7.23
2019-01-18T13:41:40.979Z,6.37
2019-01-18T13:44:07.251Z,7.50
2019-01-18T13:46:34.840Z,7.37
2019-01-18T13:49:01.709Z,11.97
2019-01-18T13:51:27.993Z,3.77
2019-01-18T13:53:54.945Z,6.33
2019-01-18T13:56:21.470Z,4.23
2019-01-18T13:58:48.073Z,8.60
2019-01-18T14:01:14.766Z,10.50
2019-01-18T14:03:41.460Z,6.23
2019-01-18T14:06:08.141Z,6.30
2019-01-18T14:08:35.089Z,4.87
2019-01-18T14:11:01.852Z,3.90
2019-01-18T14:13:28.206Z,8.83
2019-01-18T14:15:54.724Z,4.83
2019-01-18T14:18:21.739Z,5.07
2019-01-18T14:20:48.030Z,8.80
2019-01-18T14:23:14.166Z,4.53
2019-01-18T14:25:40.421Z,8.73
2019-01-18T14:28:06.795Z,9.57
2019-01-18T14:30:35.771Z,7.17
2019-01-18T14:33:05.505Z,4.80
2019-01-18T14:35:32.505Z,10.60
2019-01-18T14:37:58.822Z,5.37
2019-01-18T14:40:34.189Z,7.40
2019-01-18T14:43:00.785Z,9.53
2019-01-18T14:45:39.063Z,10.93
2019-01-18T14:48:10.243Z,5.67
2019-01-18T14:50:36.496Z,5.97
2019-01-18T14:53:05.186Z,7.70
2019-01-18T15:01:48.545Z,5.30
2019-01-18T15:04:15.154Z,4.20
2019-01-18T15:06:41.465Z,7.43
2019-01-18T15:09:09.168Z,7.90
2019-01-18T15:11:35.663Z,12.30
2019-01-18T15:14:02.091Z,5.33
2019-01-18T15:16:28.438Z,5.37
2019-01-18T15:18:54.767Z,8.83
2019-01-18T15:21:20.997Z,6.57
2019-01-18T15:23:47.579Z,11.80
2019-01-18T15:26:18.411Z,10.20
2019-01-18T15:28:42.161Z,5.33
2019-01-18T15:31:08.833Z,7.40
2019-01-18T15:33:35.039Z,9.73
2019-01-18T15:36:01.418Z,6.73
2019-01-18T15:38:28.052Z,7.37
2019-01-18T15:40:54.701Z,6.33
2019-01-18T15:43:22.196Z,11.03
2019-01-18T15:45:48.555Z,10.43
2019-01-18T15:48:17.320Z,9.37
2019-01-18T15:50:43.982Z,7.67
2019-01-18T15:59:42.875Z,6.13
2019-01-18T16:02:09.836Z,16.50
2019-01-18T16:04:36.229Z,8.00
2019-01-18T16:07:02.606Z,7.80
2019-01-18T16:09:30.984Z,7.70
2019-01-18T16:11:59.126Z,7.03
2019-01-18T16:14:25.773Z,7.67
2019-01-18T16:16:52.522Z,12.27
2019-01-18T16:19:19.050Z,8.13
2019-01-18T16:21:46.595Z,15.03
2019-01-18T16:24:13.374Z,12.50
2019-01-18T16:26:39.920Z,7.13
2019-01-18T16:29:06.853Z,12.00
2019-01-18T16:31:33.270Z,13.03
2019-01-18T16:33:59.693Z,8.13
2019-01-18T16:36:26.084Z,9.73
2019-01-18T16:38:52.486Z,11.77
2019-01-18T16:41:19.707Z,7.60
2019-01-18T16:43:46.605Z,7.20
2019-01-18T16:46:15.162Z,7.00
2019-01-18T16:48:41.520Z,14.23
2019-01-18T16:51:07.724Z,9.77
2019-01-18T16:53:34.142Z,10.63
2019-01-18T16:56:00.785Z,16.47
2019-01-18T16:58:27.307Z,11.23
2019-01-18T17:00:57.217Z,10.03
2019-01-18T17:03:29.963Z,18.93
2019-01-18T17:05:52.227Z,13.97
2019-01-18T17:08:19.220Z,11.47
2019-01-18T17:10:46.812Z,9.73
2019-01-18T17:13:14.608Z,12.03
2019-01-18T17:15:41.489Z,12.03
2019-01-18T17:18:08.878Z,12.60
2019-01-18T17:20:45.105Z,15.23
2019-01-18T17:23:14.496Z,12.83
2019-01-18T17:25:41.698Z,20.10
2019-01-18T17:28:09.201Z,11.43
2019-01-18T17:30:42.540Z,25.90
2019-01-18T17:33:09.933Z,18.80
2019-01-18T17:35:43.767Z,13.27
2019-01-18T17:38:22.881Z,11.70
2019-01-18T17:40:59.304Z,13.37
2019-01-18T17:43:35.204Z,17.83
2019-01-18T17:46:05.692Z,18.50
2019-01-18T17:49:13.823Z,13.00
2019-01-18T17:51:46.734Z,11.27
2019-01-18T17:54:19.904Z,14.87
2019-01-18T17:57:23.256Z,10.63
2019-01-18T18:00:13.815Z,13.07
2019-01-18T18:02:55.442Z,10.73
2019-01-18T18:05:43.924Z,9.60
2019-01-18T18:12:13.176Z,10.00
2019-01-18T18:17:57.206Z,13.03
2019-01-18T18:20:36.016Z,9.80
2019-01-18T18:23:25.956Z,19.77
2019-01-18T18:25:56.383Z,21.10
2019-01-18T18:28:44.672Z,14.13
2019-01-18T18:31:23.683Z,14.73
2019-01-18T18:34:16.776Z,11.83
2019-01-18T18:36:52.938Z,12.93
2019-01-18T18:39:40.256Z,11.50
2019-01-18T18:45:47.917Z,15.23
2019-01-18T18:52:13.428Z,15.33
2019-01-18T18:55:10.146Z,15.17
2019-01-18T18:58:14.606Z,17.33
2019-01-18T19:00:50.716Z,17.00
2019-01-18T19:03:41.232Z,13.50
2019-01-18T19:06:22.561Z,13.07
2019-01-18T19:09:12.298Z,12.70
2019-01-18T19:11:51.900Z,14.40
2019-01-18T19:14:45.630Z,14.83
2019-01-18T19:17:45.291Z,11.37
2019-01-18T19:20:28.275Z,12.80
2019-01-18T19:26:26.308Z,15.47
2019-01-18T19:29:16.269Z,15.23
2019-01-18T19:32:01.890Z,23.37
2019-01-18T19:41:35.152Z,12.73
2019-01-18T19:44:20.526Z,13.33
2019-01-18T19:47:12.271Z,19.17
2019-01-18T19:49:48.679Z,12.83
2019-01-18T19:52:24.682Z,14.33
2019-01-18T19:58:37.040Z,16.37
2019-01-18T20:01:39.849Z,15.17
2019-01-18T20:07:48.017Z,24.23
2019-01-18T20:10:20.765Z,19.00
2019-01-18T20:13:12.085Z,22.97
2019-01-18T20:15:50.800Z,18.50
2019-01-18T20:18:32.431Z,19.00
2019-01-18T20:21:17.789Z,24.70
2019-01-18T20:24:14.030Z,27.93
2019-01-18T20:27:06.967Z,19.60
2019-01-18T20:29:56.710Z,19.30
2019-01-18T20:32:48.568Z,19.97
2019-01-18T20:38:59.422Z,23.63
2019-01-18T20:41:52.127Z,23.07
2019-01-18T20:44:52.070Z,20.23
2019-01-18T20:54:03.233Z,18.60
2019-01-18T21:00:19.692Z,21.10
2019-01-18T21:02:58.722Z,23.07
2019-01-18T21:05:31.858Z,25.27
2019-01-18T21:11:27.871Z,27.00
2019-01-18T21:14:15.103Z,26.97
2019-01-18T21:17:19.202Z,21.93
2019-01-18T21:19:56.302Z,19.70
2019-01-18T21:25:58.697Z,20.60
2019-01-18T21:32:03.375Z,22.50
2019-01-18T21:34:39.626Z,18.60
2019-01-18T21:37:37.393Z,18.83
2019-01-18T21:43:47.757Z,21.57
2019-01-18T21:46:23.845Z,18.93
2019-01-18T21:48:54.013Z,25.10
2019-01-18T21:51:55.770Z,23.30
2019-01-18T21:54:42.458Z,21.93
2019-01-18T22:00:36.395Z,29.00
2019-01-18T22:03:18.947Z,26.23
2019-01-18T22:08:55.732Z,20.40
2019-01-18T22:11:42.237Z,26.07
2019-01-18T22:14:24.108Z,24.23
2019-01-18T22:17:08.020Z,20.37
2019-01-18T22:19:47.990Z,24.07
2019-01-18T22:22:41.093Z,18.60
2019-01-18T22:25:25.312Z,22.23
2019-01-18T22:27:58.677Z,25.53
2019-01-18T22:31:12.021Z,25.70
2019-01-18T22:33:42.246Z,22.10
2019-01-18T22:36:36.645Z,21.97
2019-01-18T22:39:12.736Z,23.70
2019-01-18T22:41:57.166Z,33.63
2019-01-18T22:48:24.192Z,23.00
2019-01-18T22:51:18.446Z,26.10
2019-01-18T22:58:15.720Z,24.10
2019-01-18T23:01:09.233Z,23.43
2019-01-18T23:03:59.168Z,24.33
2019-01-18T23:06:36.963Z,21.60
2019-01-18T23:09:16.495Z,27.73
2019-01-18T23:11:49.358Z,24.43
2019-01-18T23:14:22.653Z,25.43
2019-01-18T23:17:07.342Z,25.20
2019-01-18T23:20:06.545Z,29.20
2019-01-18T23:22:36.600Z,27.40
2019-01-18T23:25:09.697Z,31.00
2019-01-18T23:27:48.908Z,29.50
2019-01-18T23:30:40.407Z,24.13
2019-01-18T23:33:37.387Z,22.00
2019-01-18T23:36:16.123Z,18.07
2019-01-18T23:42:09.987Z,22.60
2019-01-18T23:44:52.441Z,22.67
2019-01-18T23:47:26.095Z,21.20
2019-01-18T23:50:02.041Z,20.80
2019-01-18T23:52:38.470Z,22.77
2019-01-18T23:55:30.304Z,19.50
2019-01-18T23:58:15.764Z,17.87
